sensor_id;sensor_type;location;lat;lon;timestamp;pressure;altitude;pressure_sealevel;temperature;humidity
71109;BME280;59614;51.012;-1.648;2023-08-06T00:00:50;100545.09;;;13.13;100.00
71109;BME280;59614;51.012;-1.648;2023-08-06T00:03:16;100546.06;;;13.11;100.00
71109;BME280;59614;51.012;-1.648;2023-08-06T00:05:42;100540.47;;;13.22;100.00
71109;BME280;59614;51.012;-1.648;2023-08-06T00:08:10;100549.38;;;13.19;100.00
71109;BME280;59614;51.012;-1.648;2023-08-06T00:10:36;100556.41;;;13.20;100.00
71109;BME280;59614;51.012;-1.648;2023-08-06T00:13:01;100558.34;;;13.13;100.00
71109;BME280;59614;51.012;-1.648;2023-08-06T00:15:27;100557.59;;;13.08;100.00
71109;BME280;59614;51.012;-1.648;2023-08-06T00:17:52;100567.16;;;13.14;100.00
71109;BME280;59614;51.012;-1.648;2023-08-06T00:20:17;100564.63;;;13.09;100.00
71109;BME280;59614;51.012;-1.648;2023-08-06T00:22:43;100576.06;;;13.11;100.00
71109;BME280;59614;51.012;-1.648;2023-08-06T00:25:08;100573.66;;;13.02;100.00
71109;BME280;59614;51.012;-1.648;2023-08-06T00:27:34;100575.22;;;13.09;100.00
71109;BME280;59614;51.012;-1.648;2023-08-06T00:29:59;100579.06;;;12.96;100.00
71109;BME280;59614;51.012;-1.648;2023-08-06T00:32:25;100591.47;;;12.95;100.00
71109;BME280;59614;51.012;-1.648;2023-08-06T00:34:50;100592.41;;;12.93;100.00
71109;BME280;59614;51.012;-1.648;2023-08-06T00:37:16;100588.03;;;12.90;100.00
71109;BME280;59614;51.012;-1.648;2023-08-06T00:39:42;100595.91;;;12.93;100.00
71109;BME280;59614;51.012;-1.648;2023-08-06T00:42:08;100594.13;;;12.95;100.00
71109;BME280;59614;51.012;-1.648;2023-08-06T00:44:33;100598.53;;;12.95;100.00
71109;BME280;59614;51.012;-1.648;2023-08-06T00:46:59;100602.16;;;12.91;100.00
71109;BME280;59614;51.012;-1.648;2023-08-06T00:49:24;100603.13;;;12.88;100.00
71109;BME280;59614;51.012;-1.648;2023-08-06T00:51:50;100602.28;;;12.85;100.00
71109;BME280;59614;51.012;-1.648;2023-08-06T00:54:16;100607.53;;;12.88;100.00
71109;BME280;59614;51.012;-1.648;2023-08-06T00:56:42;100621.69;;;12.87;100.00
71109;BME280;59614;51.012;-1.648;2023-08-06T00:59:08;100619.13;;;12.82;100.00
71109;BME280;59614;51.012;-1.648;2023-08-06T01:01:35;100615.66;;;12.80;100.00
71109;BME280;59614;51.012;-1.648;2023-08-06T01:04:01;100626.38;;;12.74;100.00
71109;BME280;59614;51.012;-1.648;2023-08-06T01:12:05;100638.00;;;12.68;100.00
71109;BME280;59614;51.012;-1.648;2023-08-06T01:14:48;100631.25;;;12.51;100.00
71109;BME280;59614;51.012;-1.648;2023-08-06T01:17:17;100635.53;;;12.59;100.00
71109;BME280;59614;51.012;-1.648;2023-08-06T01:19:43;100638.94;;;12.64;100.00
71109;BME280;59614;51.012;-1.648;2023-08-06T01:22:08;100644.22;;;12.65;100.00
71109;BME280;59614;51.012;-1.648;2023-08-06T01:24:34;100642.44;;;12.66;100.00
71109;BME280;59614;51.012;-1.648;2023-08-06T01:27:20;100646.44;;;12.43;100.00
71109;BME280;59614;51.012;-1.648;2023-08-06T01:29:59;100648.78;;;12.59;100.00
71109;BME280;59614;51.012;-1.648;2023-08-06T01:32:29;100661.94;;;12.63;100.00
71109;BME280;59614;51.012;-1.648;2023-08-06T01:34:55;100649.69;;;12.58;100.00
71109;BME280;59614;51.012;-1.648;2023-08-06T01:37:22;100648.84;;;12.56;100.00
71109;BME280;59614;51.012;-1.648;2023-08-06T01:39:47;100656.81;;;12.54;100.00
71109;BME280;59614;51.012;-1.648;2023-08-06T01:42:13;100659.47;;;12.54;100.00
71109;BME280;59614;51.012;-1.648;2023-08-06T01:44:38;100658.63;;;12.50;100.00
71109;BME280;59614;51.012;-1.648;2023-08-06T01:47:04;100661.47;;;12.41;100.00
71109;BME280;59614;51.012;-1.648;2023-08-06T01:49:30;100663.22;;;12.42;100.00
71109;BME280;59614;51.012;-1.648;2023-08-06T01:51:55;100673.81;;;12.42;100.00
71109;BME280;59614;51.012;-1.648;2023-08-06T01:54:20;100673.84;;;12.41;100.00
71109;BME280;59614;51.012;-1.648;2023-08-06T01:56:46;100681.81;;;12.39;100.00
71109;BME280;59614;51.012;-1.648;2023-08-06T01:59:11;100680.91;;;12.40;100.00
71109;BME280;59614;51.012;-1.648;2023-08-06T02:01:37;100676.63;;;12.34;100.00
71109;BME280;59614;51.012;-1.648;2023-08-06T02:04:02;100675.84;;;12.28;100.00
71109;BME280;59614;51.012;-1.648;2023-08-06T02:06:27;100678.59;;;12.25;100.00
71109;BME280;59614;51.012;-1.648;2023-08-06T02:08:53;100677.69;;;12.26;100.00
71109;BME280;59614;51.012;-1.648;2023-08-06T02:11:18;100681.34;;;12.18;100.00
71109;BME280;59614;51.012;-1.648;2023-08-06T02:13:44;100687.50;;;12.19;100.00
71109;BME280;59614;51.012;-1.648;2023-08-06T02:16:10;100675.13;;;12.21;100.00
71109;BME280;59614;51.012;-1.648;2023-08-06T02:18:36;100677.91;;;12.13;100.00
71109;BME280;59614;51.012;-1.648;2023-08-06T02:21:01;100681.50;;;12.09;100.00
71109;BME280;59614;51.012;-1.648;2023-08-06T02:23:27;100688.72;;;12.01;100.00
71109;BME280;59614;51.012;-1.648;2023-08-06T02:26:03;100693.97;;;12.04;100.00
71109;BME280;59614;51.012;-1.648;2023-08-06T02:28:30;100682.59;;;11.97;100.00
71109;BME280;59614;51.012;-1.648;2023-08-06T02:30:55;100695.75;;;12.02;100.00
71109;BME280;59614;51.012;-1.648;2023-08-06T02:33:21;100698.41;;;12.02;100.00
71109;BME280;59614;51.012;-1.648;2023-08-06T02:35:46;100693.22;;;11.94;100.00
71109;BME280;59614;51.012;-1.648;2023-08-06T02:38:12;100689.66;;;11.98;100.00
71109;BME280;59614;51.012;-1.648;2023-08-06T02:40:43;100687.03;;;11.95;100.00
71109;BME280;59614;51.012;-1.648;2023-08-06T02:43:09;100699.34;;;11.98;100.00
71109;BME280;59614;51.012;-1.648;2023-08-06T02:45:35;100691.41;;;11.98;100.00
71109;BME280;59614;51.012;-1.648;2023-08-06T02:48:00;100696.00;;;11.86;100.00
71109;BME280;59614;51.012;-1.648;2023-08-06T02:50:27;100697.75;;;11.87;100.00
71109;BME280;59614;51.012;-1.648;2023-08-06T02:52:52;100701.28;;;11.86;100.00
71109;BME280;59614;51.012;-1.648;2023-08-06T02:55:18;100699.66;;;11.79;100.00
71109;BME280;59614;51.012;-1.648;2023-08-06T02:57:43;100692.69;;;11.73;100.00
71109;BME280;59614;51.012;-1.648;2023-08-06T03:00:09;100700.72;;;11.69;100.00
71109;BME280;59614;51.012;-1.648;2023-08-06T03:02:36;100701.50;;;11.74;100.00
71109;BME280;59614;51.012;-1.648;2023-08-06T03:05:02;100701.47;;;11.76;100.00
71109;BME280;59614;51.012;-1.648;2023-08-06T03:07:28;100712.19;;;11.68;100.00
71109;BME280;59614;51.012;-1.648;2023-08-06T03:09:54;100708.78;;;11.59;100.00
71109;BME280;59614;51.012;-1.648;2023-08-06T03:12:19;100702.66;;;11.57;100.00
71109;BME280;59614;51.012;-1.648;2023-08-06T03:14:45;100702.63;;;11.59;100.00
71109;BME280;59614;51.012;-1.648;2023-08-06T03:17:10;100705.28;;;11.57;100.00
71109;BME280;59614;51.012;-1.648;2023-08-06T03:19:36;100714.13;;;11.56;100.00
71109;BME280;59614;51.012;-1.648;2023-08-06T03:22:01;100707.00;;;11.60;100.00
71109;BME280;59614;51.012;-1.648;2023-08-06T03:24:27;100713.31;;;11.51;100.00
71109;BME280;59614;51.012;-1.648;2023-08-06T03:26:52;100715.81;;;11.61;100.00
71109;BME280;59614;51.012;-1.648;2023-08-06T03:29:17;100720.31;;;11.55;100.00
71109;BME280;59614;51.012;-1.648;2023-08-06T03:31:43;100727.34;;;11.55;100.00
71109;BME280;59614;51.012;-1.648;2023-08-06T03:34:08;100720.38;;;11.51;100.00
71109;BME280;59614;51.012;-1.648;2023-08-06T03:36:34;100719.56;;;11.47;100.00
71109;BME280;59614;51.012;-1.648;2023-08-06T03:38:59;100717.81;;;11.44;100.00
71109;BME280;59614;51.012;-1.648;2023-08-06T03:41:24;100715.16;;;11.46;100.00
71109;BME280;59614;51.012;-1.648;2023-08-06T03:43:50;100716.91;;;11.46;100.00
71109;BME280;59614;51.012;-1.648;2023-08-06T03:46:15;100714.38;;;11.38;100.00
71109;BME280;59614;51.012;-1.648;2023-08-06T03:48:41;100708.22;;;11.39;100.00
71109;BME280;59614;51.012;-1.648;2023-08-06T03:51:06;100704.63;;;11.43;100.00
71109;BME280;59614;51.012;-1.648;2023-08-06T03:53:31;100710.72;;;11.48;100.00
71109;BME280;59614;51.012;-1.648;2023-08-06T03:55:57;100713.31;;;11.51;100.00
71109;BME280;59614;51.012;-1.648;2023-08-06T03:58:25;100712.56;;;11.43;100.00
71109;BME280;59614;51.012;-1.648;2023-08-06T04:01:00;100702.97;;;11.37;100.00
71109;BME280;59614;51.012;-1.648;2023-08-06T04:03:26;100703.00;;;11.36;100.00
71109;BME280;59614;51.012;-1.648;2023-08-06T04:05:52;100702.09;;;11.35;100.00
71109;BME280;59614;51.012;-1.648;2023-08-06T04:08:17;100702.22;;;11.27;100.00
71109;BME280;59614;51.012;-1.648;2023-08-06T04:10:43;100705.66;;;11.33;100.00
71109;BME280;59614;51.012;-1.648;2023-08-06T04:13:08;100701.97;;;11.44;100.00
71109;BME280;59614;51.012;-1.648;2023-08-06T04:15:34;100713.38;;;11.47;100.00
71109;BME280;59614;51.012;-1.648;2023-08-06T04:18:00;100713.31;;;11.51;100.00
71109;BME280;59614;51.012;-1.648;2023-08-06T04:20:25;100712.53;;;11.46;100.00
71109;BME280;59614;51.012;-1.648;2023-08-06T04:22:50;100712.41;;;11.52;100.00
71109;BME280;59614;51.012;-1.648;2023-08-06T04:25:16;100722.09;;;11.53;100.00
71109;BME280;59614;51.012;-1.648;2023-08-06T04:27:46;100729.09;;;11.57;100.00
71109;BME280;59614;51.012;-1.648;2023-08-06T04:30:12;100726.38;;;11.61;100.00
71109;BME280;59614;51.012;-1.648;2023-08-06T04:32:39;100726.38;;;11.61;100.00
71109;BME280;59614;51.012;-1.648;2023-08-06T04:35:04;100735.16;;;11.63;100.00
71109;BME280;59614;51.012;-1.648;2023-08-06T04:37:30;100739.66;;;11.56;100.00
71109;BME280;59614;51.012;-1.648;2023-08-06T04:39:56;100733.47;;;11.58;100.00
71109;BME280;59614;51.012;-1.648;2023-08-06T04:42:21;100737.03;;;11.57;100.00
71109;BME280;59614;51.012;-1.648;2023-08-06T04:44:46;100740.59;;;11.53;100.00
71109;BME280;59614;51.012;-1.648;2023-08-06T04:47:12;100739.69;;;11.54;100.00
71109;BME280;59614;51.012;-1.648;2023-08-06T04:49:37;100737.72;;;11.67;100.00
71109;BME280;59614;51.012;-1.648;2023-08-06T04:52:03;100738.63;;;11.68;100.00
71109;BME280;59614;51.012;-1.648;2023-08-06T04:54:29;100738.66;;;11.65;100.00
71109;BME280;59614;51.012;-1.648;2023-08-06T04:56:54;100739.50;;;11.65;100.00
71109;BME280;59614;51.012;-1.648;2023-08-06T04:59:19;100745.66;;;11.69;100.00
71109;BME280;59614;51.012;-1.648;2023-08-06T05:01:45;100753.75;;;11.58;100.00
71109;BME280;59614;51.012;-1.648;2023-08-06T05:04:10;100764.16;;;11.67;100.00
71109;BME280;59614;51.012;-1.648;2023-08-06T05:06:36;100765.91;;;11.68;100.00
71109;BME280;59614;51.012;-1.648;2023-08-06T05:09:03;100769.41;;;11.70;100.00
71109;BME280;59614;51.012;-1.648;2023-08-06T05:11:30;100769.25;;;11.80;100.00
71109;BME280;59614;51.012;-1.648;2023-08-06T05:13:55;100770.09;;;11.83;100.00
71109;BME280;59614;51.012;-1.648;2023-08-06T05:16:20;100777.16;;;11.83;100.00
71109;BME280;59614;51.012;-1.648;2023-08-06T05:18:46;100776.16;;;11.92;100.00
71109;BME280;59614;51.012;-1.648;2023-08-06T05:21:11;100777.00;;;11.92;100.00
71109;BME280;59614;51.012;-1.648;2023-08-06T05:23:37;100777.84;;;11.94;100.00
71109;BME280;59614;51.012;-1.648;2023-08-06T05:26:02;100785.66;;;12.03;100.00
71109;BME280;59614;51.012;-1.648;2023-08-06T05:28:27;100790.84;;;12.11;100.00
71109;BME280;59614;51.012;-1.648;2023-08-06T05:30:53;100783.91;;;12.04;100.00
71109;BME280;59614;51.012;-1.648;2023-08-06T05:33:18;100783.72;;;12.15;100.00
71109;BME280;59614;51.012;-1.648;2023-08-06T05:35:44;100781.06;;;12.15;100.00
71109;BME280;59614;51.012;-1.648;2023-08-06T05:38:09;100785.38;;;12.20;100.00
71109;BME280;59614;51.012;-1.648;2023-08-06T05:40:35;100792.31;;;12.28;100.00
71109;BME280;59614;51.012;-1.648;2023-08-06T05:43:00;100792.38;;;12.23;100.00
71109;BME280;59614;51.012;-1.648;2023-08-06T05:45:25;100801.84;;;12.38;100.00
71109;BME280;59614;51.012;-1.648;2023-08-06T05:47:51;100793.91;;;12.38;100.00
71109;BME280;59614;51.012;-1.648;2023-08-06T05:50:19;100796.31;;;12.50;100.00
71109;BME280;59614;51.012;-1.648;2023-08-06T05:52:44;100807.88;;;12.46;100.00
71109;BME280;59614;51.012;-1.648;2023-08-06T05:55:10;100806.91;;;12.50;100.00
71109;BME280;59614;51.012;-1.648;2023-08-06T05:57:35;100816.50;;;12.58;100.00
71109;BME280;59614;51.012;-1.648;2023-08-06T06:00:01;100820.75;;;12.65;100.00
71109;BME280;59614;51.012;-1.648;2023-08-06T06:02:28;100819.00;;;12.65;100.00
71109;BME280;59614;51.012;-1.648;2023-08-06T06:04:53;100826.78;;;12.73;100.00
71109;BME280;59614;51.012;-1.648;2023-08-06T06:07:18;100831.25;;;12.71;100.00
71109;BME280;59614;51.012;-1.648;2023-08-06T06:09:44;100833.66;;;12.83;100.00
71109;BME280;59614;51.012;-1.648;2023-08-06T06:12:10;100835.34;;;12.88;100.00
71109;BME280;59614;51.012;-1.648;2023-08-06T06:14:35;100830.75;;;12.96;100.00
71109;BME280;59614;51.012;-1.648;2023-08-06T06:17:00;100820.97;;;13.01;100.00
71109;BME280;59614;51.012;-1.648;2023-08-06T06:19:26;100827.94;;;13.05;100.00
71109;BME280;59614;51.012;-1.648;2023-08-06T06:21:52;100826.09;;;13.09;100.00
71109;BME280;59614;51.012;-1.648;2023-08-06T06:24:18;100835.91;;;13.04;100.00
71109;BME280;59614;51.012;-1.648;2023-08-06T06:26:43;100829.56;;;13.12;100.00
71109;BME280;59614;51.012;-1.648;2023-08-06T06:29:09;100839.94;;;13.23;100.00
71109;BME280;59614;51.012;-1.648;2023-08-06T06:31:34;100835.34;;;13.32;100.00
71109;BME280;59614;51.012;-1.648;2023-08-06T06:33:59;100841.53;;;13.32;100.00
71109;BME280;59614;51.012;-1.648;2023-08-06T06:36:25;100839.50;;;13.47;100.00
71109;BME280;59614;51.012;-1.648;2023-08-06T06:38:50;100840.00;;;13.63;100.00
71109;BME280;59614;51.012;-1.648;2023-08-06T06:41:16;100841.56;;;13.73;100.00
71109;BME280;59614;51.012;-1.648;2023-08-06T06:43:41;100841.88;;;13.59;100.00
71109;BME280;59614;51.012;-1.648;2023-08-06T06:46:07;100842.63;;;13.64;99.02
71109;BME280;59614;51.012;-1.648;2023-08-06T06:48:33;100851.88;;;13.85;99.04
71109;BME280;59614;51.012;-1.648;2023-08-06T06:50:59;100849.91;;;13.94;96.94
71109;BME280;59614;51.012;-1.648;2023-08-06T06:53:24;100860.06;;;14.14;96.56
71109;BME280;59614;51.012;-1.648;2023-08-06T06:56:01;100870.31;;;14.29;96.64
71109;BME280;59614;51.012;-1.648;2023-08-06T06:58:26;100869.00;;;14.46;96.92
71109;BME280;59614;51.012;-1.648;2023-08-06T07:00:52;100866.53;;;14.74;96.02
71109;BME280;59614;51.012;-1.648;2023-08-06T07:03:19;100863.84;;;15.07;93.37
71109;BME280;59614;51.012;-1.648;2023-08-06T07:05:44;100871.09;;;15.34;93.56
71109;BME280;59614;51.012;-1.648;2023-08-06T07:08:10;100867.94;;;15.79;89.79
71109;BME280;59614;51.012;-1.648;2023-08-06T07:10:35;100870.50;;;16.12;90.68
71109;BME280;59614;51.012;-1.648;2023-08-06T07:13:01;100868.75;;;16.11;87.30
71109;BME280;59614;51.012;-1.648;2023-08-06T07:15:26;100872.34;;;16.37;88.35
71109;BME280;59614;51.012;-1.648;2023-08-06T07:17:52;100873.78;;;16.74;87.42
71109;BME280;59614;51.012;-1.648;2023-08-06T07:20:17;100873.88;;;17.22;83.77
71109;BME280;59614;51.012;-1.648;2023-08-06T07:22:44;100873.25;;;17.15;79.34
71109;BME280;59614;51.012;-1.648;2023-08-06T07:25:09;100875.56;;;17.24;84.51
71109;BME280;59614;51.012;-1.648;2023-08-06T07:27:34;100872.91;;;17.48;78.64
71109;BME280;59614;51.012;-1.648;2023-08-06T07:30:00;100879.41;;;18.11;78.60
71109;BME280;59614;51.012;-1.648;2023-08-06T07:32:26;100880.19;;;18.35;78.20
71109;BME280;59614;51.012;-1.648;2023-08-06T07:34:53;100877.69;;;18.30;81.49
71109;BME280;59614;51.012;-1.648;2023-08-06T07:37:22;100869.13;;;18.00;77.93
71109;BME280;59614;51.012;-1.648;2023-08-06T07:39:48;100869.22;;;17.74;79.49
71109;BME280;59614;51.012;-1.648;2023-08-06T07:42:13;100870.38;;;18.13;77.78
71109;BME280;59614;51.012;-1.648;2023-08-06T07:44:39;100872.09;;;18.36;77.70
71109;BME280;59614;51.012;-1.648;2023-08-06T07:47:05;100863.56;;;18.70;78.28
71109;BME280;59614;51.012;-1.648;2023-08-06T07:49:30;100872.38;;;18.94;76.84
71109;BME280;59614;51.012;-1.648;2023-08-06T07:51:56;100870.72;;;18.26;71.77
71109;BME280;59614;51.012;-1.648;2023-08-06T07:54:21;100872.66;;;18.23;75.71
71109;BME280;59614;51.012;-1.648;2023-08-06T07:56:47;100864.16;;;18.13;72.25
71109;BME280;59614;51.012;-1.648;2023-08-06T07:59:13;100872.59;;;18.46;74.25
71109;BME280;59614;51.012;-1.648;2023-08-06T08:01:38;100867.81;;;18.32;72.31
71109;BME280;59614;51.012;-1.648;2023-08-06T08:04:04;100874.03;;;18.53;73.05
71109;BME280;59614;51.012;-1.648;2023-08-06T08:06:30;100860.44;;;18.17;69.93
71109;BME280;59614;51.012;-1.648;2023-08-06T08:08:55;100863.31;;;18.55;74.40
71109;BME280;59614;51.012;-1.648;2023-08-06T08:11:21;100871.00;;;18.63;71.84
71109;BME280;59614;51.012;-1.648;2023-08-06T08:13:46;100859.78;;;18.12;72.09
71109;BME280;59614;51.012;-1.648;2023-08-06T08:16:11;100862.75;;;18.47;74.81
71109;BME280;59614;51.012;-1.648;2023-08-06T08:18:37;100867.66;;;18.35;72.50
71109;BME280;59614;51.012;-1.648;2023-08-06T08:21:02;100858.91;;;18.54;71.53
71109;BME280;59614;51.012;-1.648;2023-08-06T08:23:28;100854.47;;;18.74;73.86
71109;BME280;59614;51.012;-1.648;2023-08-06T08:25:53;100860.75;;;19.14;72.15
71109;BME280;59614;51.012;-1.648;2023-08-06T08:28:19;100858.06;;;19.14;74.25
71109;BME280;59614;51.012;-1.648;2023-08-06T08:30:45;100864.50;;;18.89;68.43
71109;BME280;59614;51.012;-1.648;2023-08-06T08:33:10;100867.53;;;18.81;65.99
71109;BME280;59614;51.012;-1.648;2023-08-06T08:35:36;100867.53;;;18.18;66.51
71109;BME280;59614;51.012;-1.648;2023-08-06T08:38:02;100867.63;;;19.01;69.64
71109;BME280;59614;51.012;-1.648;2023-08-06T08:40:31;100866.13;;;19.33;66.56
71109;BME280;59614;51.012;-1.648;2023-08-06T08:43:01;100874.75;;;19.78;67.97
71109;BME280;59614;51.012;-1.648;2023-08-06T08:45:29;100866.66;;;19.80;68.20
71109;BME280;59614;51.012;-1.648;2023-08-06T08:47:55;100874.28;;;19.11;65.41
71109;BME280;59614;51.012;-1.648;2023-08-06T08:50:21;100863.44;;;19.33;67.98
71109;BME280;59614;51.012;-1.648;2023-08-06T08:52:47;100855.78;;;19.64;63.51
71109;BME280;59614;51.012;-1.648;2023-08-06T08:55:16;100862.22;;;20.34;65.22
71109;BME280;59614;51.012;-1.648;2023-08-06T08:57:42;100851.84;;;20.09;67.78
71109;BME280;59614;51.012;-1.648;2023-08-06T09:00:07;100862.03;;;19.45;66.67
71109;BME280;59614;51.012;-1.648;2023-08-06T09:02:33;100868.50;;;18.58;67.82
71109;BME280;59614;51.012;-1.648;2023-08-06T09:05:03;100868.03;;;19.10;62.77
71109;BME280;59614;51.012;-1.648;2023-08-06T09:07:35;100863.06;;;19.03;61.53
71109;BME280;59614;51.012;-1.648;2023-08-06T09:10:03;100853.78;;;19.50;61.33
71109;BME280;59614;51.012;-1.648;2023-08-06T09:12:30;100846.69;;;19.49;61.62
71109;BME280;59614;51.012;-1.648;2023-08-06T09:14:55;100851.88;;;19.71;59.26
71109;BME280;59614;51.012;-1.648;2023-08-06T09:17:21;100854.56;;;19.90;59.62
71109;BME280;59614;51.012;-1.648;2023-08-06T09:19:47;100859.84;;;20.28;62.12
71109;BME280;59614;51.012;-1.648;2023-08-06T09:22:13;100858.38;;;19.86;58.29
71109;BME280;59614;51.012;-1.648;2023-08-06T09:24:42;100868.94;;;20.43;63.75
71109;BME280;59614;51.012;-1.648;2023-08-06T09:27:12;100866.16;;;20.45;65.09
71109;BME280;59614;51.012;-1.648;2023-08-06T09:29:43;100866.03;;;20.65;60.46
71109;BME280;59614;51.012;-1.648;2023-08-06T09:32:11;100859.78;;;20.65;59.87
71109;BME280;59614;51.012;-1.648;2023-08-06T09:34:39;100865.28;;;20.62;58.02
71109;BME280;59614;51.012;-1.648;2023-08-06T09:37:05;100862.91;;;20.20;56.53
71109;BME280;59614;51.012;-1.648;2023-08-06T09:39:30;100873.91;;;20.51;60.08
71109;BME280;59614;51.012;-1.648;2023-08-06T09:41:57;100869.06;;;20.23;55.84
71109;BME280;59614;51.012;-1.648;2023-08-06T09:44:25;100880.13;;;19.97;55.82
71109;BME280;59614;51.012;-1.648;2023-08-06T09:49:19;100869.75;;;20.80;54.98
71109;BME280;59614;51.012;-1.648;2023-08-06T09:51:48;100888.78;;;20.21;58.89
71109;BME280;59614;51.012;-1.648;2023-08-06T09:54:17;100889.66;;;19.84;59.30
71109;BME280;59614;51.012;-1.648;2023-08-06T09:56:44;100890.09;;;20.13;61.09
71109;BME280;59614;51.012;-1.648;2023-08-06T09:59:09;100881.72;;;20.56;56.78
71109;BME280;59614;51.012;-1.648;2023-08-06T10:01:36;100885.16;;;20.23;61.23
71109;BME280;59614;51.012;-1.648;2023-08-06T10:04:04;100882.19;;;20.46;56.03
71109;BME280;59614;51.012;-1.648;2023-08-06T10:06:31;100875.56;;;21.22;55.76
71109;BME280;59614;51.012;-1.648;2023-08-06T10:08:57;100880.81;;;21.41;53.52
71109;BME280;59614;51.012;-1.648;2023-08-06T10:11:24;100891.81;;;20.68;59.93
71109;BME280;59614;51.012;-1.648;2023-08-06T10:13:57;100875.81;;;21.51;56.18
71109;BME280;59614;51.012;-1.648;2023-08-06T10:16:24;100882.63;;;21.07;59.99
71109;BME280;59614;51.012;-1.648;2023-08-06T10:18:50;100882.97;;;20.83;57.93
71109;BME280;59614;51.012;-1.648;2023-08-06T10:21:17;100887.97;;;20.19;63.77
71109;BME280;59614;51.012;-1.648;2023-08-06T10:23:42;100888.94;;;19.99;65.41
71109;BME280;59614;51.012;-1.648;2023-08-06T10:26:08;100886.66;;;19.92;58.87
71109;BME280;59614;51.012;-1.648;2023-08-06T10:28:37;100884.81;;;19.54;64.42
71109;BME280;59614;51.012;-1.648;2023-08-06T10:31:03;100893.19;;;19.27;60.13
71109;BME280;59614;51.012;-1.648;2023-08-06T10:33:47;100893.09;;;20.78;55.61
71109;BME280;59614;51.012;-1.648;2023-08-06T10:36:13;100886.69;;;20.98;54.97
71109;BME280;59614;51.012;-1.648;2023-08-06T10:38:49;100884.56;;;21.05;54.92
71109;BME280;59614;51.012;-1.648;2023-08-06T10:41:37;100888.16;;;20.34;56.41
71109;BME280;59614;51.012;-1.648;2023-08-06T10:44:09;100887.69;;;21.13;58.24
71109;BME280;59614;51.012;-1.648;2023-08-06T10:46:35;100879.88;;;21.76;55.46
71109;BME280;59614;51.012;-1.648;2023-08-06T10:49:01;100878.72;;;20.97;53.28
71109;BME280;59614;51.012;-1.648;2023-08-06T10:51:27;100882.28;;;21.81;59.91
71109;BME280;59614;51.012;-1.648;2023-08-06T10:53:53;100876.00;;;22.28;56.92
71109;BME280;59614;51.012;-1.648;2023-08-06T10:56:21;100872.75;;;23.13;54.43
71109;BME280;59614;51.012;-1.648;2023-08-06T10:58:56;100866.94;;;22.76;49.64
71109;BME280;59614;51.012;-1.648;2023-08-06T11:01:23;100877.63;;;22.31;52.14
71109;BME280;59614;51.012;-1.648;2023-08-06T11:03:49;100876.59;;;21.53;51.45
71109;BME280;59614;51.012;-1.648;2023-08-06T11:06:20;100883.16;;;20.80;58.25
71109;BME280;59614;51.012;-1.648;2023-08-06T11:08:53;100891.94;;;21.18;56.43
71109;BME280;59614;51.012;-1.648;2023-08-06T11:11:20;100890.84;;;22.03;51.98
71109;BME280;59614;51.012;-1.648;2023-08-06T11:13:47;100892.66;;;22.65;48.93
71109;BME280;59614;51.012;-1.648;2023-08-06T11:16:17;100893.25;;;22.24;50.53
71109;BME280;59614;51.012;-1.648;2023-08-06T11:18:43;100891.22;;;21.32;51.94
71109;BME280;59614;51.012;-1.648;2023-08-06T11:21:09;100893.66;;;21.19;57.09
71109;BME280;59614;51.012;-1.648;2023-08-06T11:23:37;100890.91;;;22.34;53.13
71109;BME280;59614;51.012;-1.648;2023-08-06T11:26:03;100897.38;;;23.21;54.41
71109;BME280;59614;51.012;-1.648;2023-08-06T11:28:28;100892.59;;;23.26;55.88
71109;BME280;59614;51.012;-1.648;2023-08-06T11:30:54;100884.47;;;23.70;53.44
71109;BME280;59614;51.012;-1.648;2023-08-06T11:33:25;100897.38;;;23.21;54.50
71109;BME280;59614;51.012;-1.648;2023-08-06T11:35:52;100902.88;;;22.75;55.40
71109;BME280;59614;51.012;-1.648;2023-08-06T11:38:18;100898.38;;;22.13;57.14
71109;BME280;59614;51.012;-1.648;2023-08-06T11:40:50;100887.09;;;22.22;57.36
71109;BME280;59614;51.012;-1.648;2023-08-06T11:43:16;100893.66;;;22.79;57.54
71109;BME280;59614;51.012;-1.648;2023-08-06T11:45:42;100896.94;;;22.98;55.03
71109;BME280;59614;51.012;-1.648;2023-08-06T11:48:08;100899.66;;;22.84;57.47
71109;BME280;59614;51.012;-1.648;2023-08-06T11:50:37;100907.28;;;22.61;59.48
71109;BME280;59614;51.012;-1.648;2023-08-06T11:53:04;100902.00;;;22.28;56.83
71109;BME280;59614;51.012;-1.648;2023-08-06T11:55:30;100907.78;;;21.22;55.48
71109;BME280;59614;51.012;-1.648;2023-08-06T11:57:56;100897.13;;;21.38;61.30
71109;BME280;59614;51.012;-1.648;2023-08-06T12:00:25;100897.84;;;21.58;58.88
71109;BME280;59614;51.012;-1.648;2023-08-06T12:02:52;100903.56;;;22.93;55.53
71109;BME280;59614;51.012;-1.648;2023-08-06T12:05:37;100895.00;;;23.87;51.28
71109;BME280;59614;51.012;-1.648;2023-08-06T12:08:04;100906.81;;;23.43;57.33
71109;BME280;59614;51.012;-1.648;2023-08-06T12:10:30;100902.13;;;22.73;56.05
71109;BME280;59614;51.012;-1.648;2023-08-06T12:12:56;100911.56;;;23.09;56.92
71109;BME280;59614;51.012;-1.648;2023-08-06T12:15:22;100899.63;;;23.29;49.32
71109;BME280;59614;51.012;-1.648;2023-08-06T12:17:49;100896.75;;;23.88;54.33
71109;BME280;59614;51.012;-1.648;2023-08-06T12:20:15;100900.66;;;24.39;52.44
71109;BME280;59614;51.012;-1.648;2023-08-06T12:22:40;100883.38;;;24.69;51.53
71109;BME280;59614;51.012;-1.648;2023-08-06T12:25:07;100889.56;;;25.36;49.35
71109;BME280;59614;51.012;-1.648;2023-08-06T12:27:37;100882.75;;;25.04;49.22
71109;BME280;59614;51.012;-1.648;2023-08-06T12:30:04;100885.50;;;24.24;53.61
71109;BME280;59614;51.012;-1.648;2023-08-06T12:32:30;100890.63;;;23.72;54.03
71109;BME280;59614;51.012;-1.648;2023-08-06T12:34:55;100889.69;;;23.44;54.32
71109;BME280;59614;51.012;-1.648;2023-08-06T12:37:21;100899.81;;;22.81;58.67
71109;BME280;59614;51.012;-1.648;2023-08-06T12:39:46;100896.75;;;21.94;54.77